Alcarras, Spain
Current Conditions -  °F | °C
As of 10:30 AM on Monday 22 Dec 2014 (Local Time) from LERS Reporting Station
Clear Clear  
Wind Chill: 46°   Ceiling: Unl
Heat Index: 48°   Visibility: 6mi
Dew Point: 43°   Wind: 5mph
Humidity: 82%   Direction: 30°NNE
Pressure: 30.5"   Gusts: NA
Location:  41.57°N, 0.52°E
Report Text: LERS 220930Z 03004KT CAVOK 09/06 Q1033
Loading
Personal Weather Stations






























Interactive Weather Map New forecast layout! Learn more

10-Day Weather Forecast

Advertisements
Track Severe Weather on mobile